Time;durP1;ratioP1;P1;durP2;ratioP2;P2;SDS_P1;SDS_P2;PMS_P1;PMS_P2;Temp;Humidity;BMP_temperature;BMP_pressure;BME280_temperature;BME280_humidity;BME280_pressure;Samples;Min_cycle;Max_cycle;Signal;HPM_P1;HPM_P2
2022/07/11 00:02:04;;;;;;;10.45;1.75;;;;;;;-144.47;65.76;53418.22;4984971;28;20388;-72
2022/07/11 00:04:30;;;;;;;5.85;1.42;;;;;;;-144.47;65.71;53414.25;4971766;28;20027;-69
2022/07/11 00:06:56;;;;;;;6.20;1.65;;;;;;;-144.47;65.71;53398.34;4976405;28;20480;-72
2022/07/11 00:09:21;;;;;;;3.97;1.30;;;;;;;-144.47;65.82;53426.16;4986650;28;20044;-71
2022/07/11 00:11:47;;;;;;;6.47;1.50;;;;;;;-144.47;65.69;53338.75;4980014;28;20026;-70
2022/07/11 00:14:13;;;;;;;6.03;1.30;;;;;;;-144.47;65.99;53432.13;4974983;28;20023;-71
2022/07/11 00:16:39;;;;;;;6.18;1.42;;;;;;;-144.47;65.84;53378.50;4975561;28;20089;-71
2022/07/11 00:19:05;;;;;;;5.70;1.95;;;;;;;-144.47;66.12;53408.28;4968986;28;20027;-72
2022/07/11 00:21:31;;;;;;;4.10;1.90;;;;;;;-144.47;66.12;53400.34;4980343;28;20030;-70
2022/07/11 00:23:57;;;;;;;9.70;1.77;;;;;;;-144.47;66.11;53370.53;4984609;28;20451;-72
2022/07/11 00:26:22;;;;;;;4.20;1.27;;;;;;;-144.47;66.33;53406.31;4972316;28;20023;-71
2022/07/11 00:28:48;;;;;;;5.88;1.70;;;;;;;-144.47;66.45;53404.31;4969251;28;20061;-69
2022/07/11 00:31:13;;;;;;;5.03;1.50;;;;;;;-144.47;66.46;53410.28;4970469;28;20157;-71
2022/07/11 00:33:39;;;;;;;7.22;2.00;;;;;;;-144.47;66.70;53402.31;4981168;28;20027;-71
2022/07/11 00:36:05;;;;;;;5.05;1.60;;;;;;;-144.47;66.93;53404.31;4969652;28;20054;-70
2022/07/11 00:38:30;;;;;;;6.38;1.50;;;;;;;-144.47;67.09;53432.13;4977300;28;20049;-68
2022/07/11 00:40:55;;;;;;;4.32;1.52;;;;;;;-144.47;67.20;53384.44;4988330;28;20069;-74
2022/07/11 00:43:33;;;;;;;6.50;1.73;;;;;;;-144.47;67.32;53428.16;4982337;28;20110;-69
2022/07/11 00:45:58;;;;;;;9.70;1.88;;;;;;;-144.47;67.60;53418.22;4992406;28;20054;-69
2022/07/11 00:48:24;;;;;;;5.03;1.60;;;;;;;-144.47;67.61;53390.41;4983408;28;20036;-71
2022/07/11 00:50:50;;;;;;;8.70;1.83;;;;;;;-144.47;67.63;53380.47;4988069;28;20495;-70
2022/07/11 00:53:17;;;;;;;3.78;1.45;;;;;;;-144.47;67.79;53428.16;4981376;28;20096;-72
2022/07/11 00:55:42;;;;;;;3.22;1.60;;;;;;;-144.47;67.86;53402.31;4991102;28;20022;-72
2022/07/11 00:58:08;;;;;;;8.57;1.60;;;;;;;-144.47;67.93;53400.34;4974925;28;20050;-69
2022/07/11 01:00:33;;;;;;;5.53;1.48;;;;;;;-144.47;68.20;53404.31;4992076;28;20022;-71
2022/07/11 01:02:58;;;;;;;6.88;1.90;;;;;;;-144.47;68.30;53394.38;4989022;28;20027;-69
2022/07/11 01:05:24;;;;;;;4.88;1.88;;;;;;;-144.47;68.37;53362.59;4985682;28;20693;-71
2022/07/11 01:07:49;;;;;;;7.50;1.90;;;;;;;-144.47;68.32;53420.22;4978595;28;20050;-70
2022/07/11 01:10:15;;;;;;;6.28;1.60;;;;;;;-144.47;68.40;53444.03;4992945;28;20026;-72
2022/07/11 01:12:40;;;;;;;8.50;1.83;;;;;;;-144.47;68.75;53444.03;4995889;28;20022;-69
2022/07/11 01:15:07;;;;;;;6.97;1.80;;;;;;;-144.47;68.83;53422.19;4983272;28;20030;-74
2022/07/11 01:17:33;;;;;;;4.43;1.40;;;;;;;-144.47;69.12;53374.50;4988022;28;20076;-71
2022/07/11 01:19:58;;;;;;;5.25;1.50;;;;;;;-144.47;69.06;53416.22;4986154;28;20037;-69
2022/07/11 01:22:24;;;;;;;6.20;1.90;;;;;;;-144.47;69.20;53416.22;4981643;28;20022;-71
2022/07/11 01:24:50;;;;;;;8.20;1.80;;;;;;;-144.47;69.07;53414.25;4987270;28;20038;-67
2022/07/11 01:27:15;;;;;;;4.30;2.05;;;;;;;-144.47;69.32;53414.25;4992191;28;20030;-74
2022/07/11 01:29:41;;;;;;;5.57;1.83;;;;;;;-144.47;69.20;53422.19;4994826;28;20408;-71
2022/07/11 01:32:10;;;;;;;5.88;1.60;;;;;;;-144.47;69.40;53426.16;4981583;28;20041;-70
2022/07/11 01:34:35;;;;;;;4.05;1.52;;;;;;;-144.47;69.33;53420.22;4996085;28;20042;-71
2022/07/11 01:37:01;;;;;;;10.50;2.03;;;;;;;-144.47;69.42;53372.53;4999961;28;20042;-69
2022/07/11 01:39:29;;;;;;;5.88;1.52;;;;;;;-144.47;69.64;53404.31;4990455;28;20045;-71
2022/07/11 01:41:57;;;;;;;5.20;1.37;;;;;;;-144.47;69.80;53392.41;4991328;28;20048;-70
2022/07/11 01:44:23;;;;;;;8.50;2.53;;;;;;;-144.47;69.83;53406.31;4993795;28;20023;-70
2022/07/11 01:46:48;;;;;;;5.10;1.73;;;;;;;-144.47;69.99;53350.69;4971613;28;20133;-67
2022/07/11 01:49:15;;;;;;;8.73;1.90;;;;;;;-144.47;70.12;53416.22;4984192;28;20121;-68
2022/07/11 01:51:41;;;;;;;8.68;1.92;;;;;;;-144.47;70.51;53420.22;4980199;28;20030;-68
2022/07/11 01:54:07;;;;;;;7.03;2.08;;;;;;;-144.47;70.56;53378.50;4974679;28;20036;-71
2022/07/11 01:56:33;;;;;;;8.00;2.22;;;;;;;-144.47;70.68;53398.34;4974555;28;20023;-70
2022/07/11 01:58:58;;;;;;;11.40;2.25;;;;;;;-144.47;71.07;53434.09;4971517;28;20519;-66
2022/07/11 02:01:24;;;;;;;4.43;1.60;;;;;;;-144.47;71.16;53414.25;4971481;28;20035;-70
2022/07/11 02:03:50;;;;;;;6.32;1.65;;;;;;;-144.47;71.15;53446.03;4984818;28;20022;-71
2022/07/11 02:06:15;;;;;;;6.93;1.90;;;;;;;-144.47;71.01;53420.22;4985441;28;20076;-72
2022/07/11 02:08:40;;;;;;;6.32;1.70;;;;;;;-144.47;71.03;53412.25;4977369;28;20027;-68
2022/07/11 02:11:06;;;;;;;8.15;2.25;;;;;;;-144.47;71.03;53426.16;4990187;28;20554;-69
2022/07/11 02:13:32;;;;;;;5.80;2.08;;;;;;;-144.47;71.08;53406.31;4976776;28;20469;-71
2022/07/11 02:15:57;;;;;;;7.72;2.20;;;;;;;-144.47;71.11;53374.50;4990282;28;20022;-68
2022/07/11 02:18:22;;;;;;;10.68;2.67;;;;;;;-144.47;71.42;53418.22;4990150;28;20030;-70
2022/07/11 02:20:51;;;;;;;9.75;2.50;;;;;;;-144.47;71.28;53430.13;4990631;28;20057;-70
2022/07/11 02:23:18;;;;;;;7.60;2.28;;;;;;;-144.47;71.47;53404.31;4981971;28;20026;-67
2022/07/11 02:25:44;;;;;;;5.55;2.35;;;;;;;-144.47;71.66;53390.41;4974492;28;20354;-74
2022/07/11 02:28:11;;;;;;;9.88;1.80;;;;;;;-144.47;71.52;53440.06;4972420;28;20565;-68
2022/07/11 02:30:41;;;;;;;11.13;2.10;;;;;;;-144.47;71.61;53457.94;4980067;28;20129;-73
2022/07/11 02:33:08;;;;;;;8.20;2.42;;;;;;;-144.47;71.88;53452.00;4986816;28;20053;-70
2022/07/11 02:35:35;;;;;;;8.05;2.72;;;;;;;-144.47;71.83;53402.31;4971019;28;20049;-71
2022/07/11 02:38:01;;;;;;;7.90;2.50;;;;;;;-144.47;71.93;53455.97;4974175;28;20029;-68
2022/07/11 02:40:27;;;;;;;9.73;2.13;;;;;;;-144.47;72.03;53424.19;4994637;28;20067;-67
2022/07/11 02:42:53;;;;;;;13.80;3.22;;;;;;;-144.47;72.10;53430.13;4981968;28;20026;-70
2022/07/11 02:45:19;;;;;;;10.63;2.95;;;;;;;-144.47;72.37;53428.16;4970519;28;20074;-67
2022/07/11 02:47:45;;;;;;;3.65;1.90;;;;;;;-144.47;72.49;53374.50;4970713;28;20125;-71
2022/07/11 02:50:13;;;;;;;6.25;2.20;;;;;;;-144.47;72.55;53428.16;4985761;28;20037;-67
2022/07/11 02:52:40;;;;;;;7.50;2.63;;;;;;;-144.47;72.53;53461.91;4987725;28;20019;-68
2022/07/11 02:55:08;;;;;;;8.55;2.30;;;;;;;-144.47;72.74;53420.22;4985412;28;20053;-71
2022/07/11 03:00:16;;;;;;;4.60;2.13;;;;;;;-144.47;72.77;53402.31;4977180;28;20472;-68
2022/07/11 03:02:41;;;;;;;9.95;2.50;;;;;;;-144.47;72.65;53446.03;4971110;28;20027;-69
2022/07/11 03:05:08;;;;;;;10.55;2.25;;;;;;;-144.47;72.66;53430.13;4978051;28;20030;-69
2022/07/11 03:07:33;;;;;;;7.70;2.33;;;;;;;-144.47;72.85;53420.22;4997877;28;20045;-69
2022/07/11 03:09:59;;;;;;;7.68;2.45;;;;;;;-144.47;72.91;53442.06;4983770;28;20026;-67
2022/07/11 03:12:24;;;;;;;10.52;2.28;;;;;;;-144.47;73.12;53404.31;4983796;28;20034;-67
2022/07/11 03:14:50;;;;;;;15.80;2.75;;;;;;;-144.47;73.32;53497.69;4997586;28;20030;-69
2022/07/11 03:17:19;;;;;;;7.22;2.25;;;;;;;-144.47;73.37;53453.97;4970916;28;20027;-67
2022/07/11 03:19:46;;;;;;;8.93;2.70;;;;;;;-144.47;73.28;53412.25;4997839;28;20427;-67
2022/07/11 03:22:12;;;;;;;7.63;2.40;;;;;;;-144.47;73.27;53424.19;4998624;28;20017;-67
2022/07/11 03:24:37;;;;;;;9.18;2.90;;;;;;;-144.47;73.32;53408.28;4991268;28;20029;-67
2022/07/11 03:27:03;;;;;;;8.93;2.25;;;;;;;-144.47;73.01;53452.00;4977995;28;20031;-68
2022/07/11 03:29:29;;;;;;;8.73;2.80;;;;;;;-144.47;72.75;53446.03;4970902;28;20394;-68
2022/07/11 03:31:54;;;;;;;5.32;2.00;;;;;;;-144.47;72.42;53436.09;4977775;28;20026;-67
2022/07/11 03:34:19;;;;;;;7.10;2.72;;;;;;;-144.47;71.93;53422.19;4986257;28;20388;-68
2022/07/11 03:36:46;;;;;;;10.13;2.60;;;;;;;-144.47;71.80;53408.28;4996971;28;20292;-69
2022/07/11 03:39:13;;;;;;;9.77;2.20;;;;;;;-144.47;71.56;53455.97;4974197;28;20408;-68
2022/07/11 03:41:38;;;;;;;11.40;2.80;;;;;;;-144.47;71.80;53412.25;4977800;28;20097;-68
2022/07/11 03:44:04;;;;;;;7.88;2.10;;;;;;;-144.47;71.93;53444.03;4999161;28;20479;-70
2022/07/11 03:46:29;;;;;;;11.45;2.53;;;;;;;-144.47;72.01;53446.03;4970677;28;20109;-68
2022/07/11 03:48:55;;;;;;;6.78;1.88;;;;;;;-144.47;72.60;53410.28;4997306;28;20033;-67
2022/07/11 03:51:20;;;;;;;7.78;2.50;;;;;;;-144.47;72.90;53446.03;4991136;28;20030;-66
2022/07/11 03:53:45;;;;;;;9.35;3.05;;;;;;;-144.47;73.11;53434.09;4989995;28;20466;-68
2022/07/11 03:56:11;;;;;;;11.00;2.60;;;;;;;-144.47;73.27;53406.31;4984500;28;20038;-67
2022/07/11 03:58:37;;;;;;;14.00;2.55;;;;;;;-144.47;73.05;53400.34;5009453;28;20133;-68
2022/07/11 04:01:02;;;;;;;7.30;2.30;;;;;;;-144.47;73.08;53428.16;4976924;28;20054;-69
2022/07/11 04:03:27;;;;;;;8.35;2.50;;;;;;;-144.47;73.26;53412.25;4985256;28;20042;-67
2022/07/11 04:05:53;;;;;;;7.43;2.60;;;;;;;-144.47;73.15;53420.22;4995977;28;20180;-68
2022/07/11 04:08:18;;;;;;;9.43;3.00;;;;;;;-144.47;73.31;53400.34;4988356;28;20117;-69
2022/07/11 04:10:44;;;;;;;9.02;2.38;;;;;;;-144.47;73.27;53485.75;4998823;28;20026;-68
2022/07/11 04:13:09;;;;;;;15.75;2.72;;;;;;;-144.47;73.31;53436.09;4981375;28;20025;-67
2022/07/11 04:15:34;;;;;;;14.80;2.78;;;;;;;-144.47;73.15;53414.25;4969381;28;20391;-67
2022/07/11 04:18:00;;;;;;;9.88;2.22;;;;;;;-144.47;73.01;53450.00;4993389;28;20160;-68
2022/07/11 04:20:25;;;;;;;9.23;2.35;;;;;;;-144.47;72.94;53416.22;5003775;28;20105;-69
2022/07/11 04:22:50;;;;;;;8.23;2.55;;;;;;;-144.47;72.91;53444.03;4998074;28;20025;-68
2022/07/11 04:25:16;;;;;;;6.97;2.50;;;;;;;-144.47;72.85;53432.13;4987896;28;20077;-68
2022/07/11 04:27:41;;;;;;;10.55;2.33;;;;;;;-144.47;72.87;53428.16;5000792;28;20491;-68
2022/07/11 04:30:07;;;;;;;7.90;2.33;;;;;;;-144.47;72.97;53406.31;4984632;28;20054;-69
2022/07/11 04:32:34;;;;;;;5.75;2.13;;;;;;;-144.47;72.60;53420.22;4980321;28;20030;-68
2022/07/11 04:35:00;;;;;;;20.98;2.95;;;;;;;-144.47;72.67;53424.19;5002711;28;20073;-68
2022/07/11 04:37:26;;;;;;;9.98;2.45;;;;;;;-144.47;72.77;53424.19;5000144;28;20423;-69
2022/07/11 04:39:51;;;;;;;14.70;3.33;;;;;;;-144.47;72.72;53400.34;5008834;28;20479;-70
2022/07/11 04:42:16;;;;;;;13.68;2.95;;;;;;;-144.47;72.63;53442.06;5007707;28;20030;-69
2022/07/11 04:44:42;;;;;;;9.10;2.60;;;;;;;-144.47;72.51;53392.41;4994207;28;20048;-69
2022/07/11 04:47:07;;;;;;;12.45;2.35;;;;;;;-144.47;72.45;53408.28;5008487;28;20030;-69
2022/07/11 04:49:32;;;;;;;7.72;2.30;;;;;;;-144.47;72.45;53420.22;4978334;28;20041;-68
2022/07/11 04:51:59;;;;;;;6.43;2.22;;;;;;;-144.47;72.28;53416.22;4989718;28;20065;-65
2022/07/11 04:54:25;;;;;;;11.70;2.63;;;;;;;-144.47;72.05;53424.19;4996284;28;20038;-68
2022/07/11 04:56:50;;;;;;;12.05;2.22;;;;;;;-144.47;72.00;53406.31;4991337;28;20045;-69
2022/07/11 04:59:15;;;;;;;11.68;3.17;;;;;;;-144.47;72.00;53424.19;5000946;28;20042;-68
2022/07/11 05:01:41;;;;;;;8.65;2.15;;;;;;;-144.47;71.61;53430.13;4981113;28;20037;-70
2022/07/11 05:04:07;;;;;;;12.10;2.45;;;;;;;-144.47;71.41;53426.16;4991008;28;20032;-68
2022/07/11 05:06:33;;;;;;;6.88;2.30;;;;;;;-144.47;71.26;53444.03;4995940;28;20120;-67
2022/07/11 05:08:58;;;;;;;11.27;2.65;;;;;;;-144.47;70.49;53408.28;5003611;28;20109;-66
2022/07/11 05:11:23;;;;;;;9.32;2.55;;;;;;;-144.47;70.64;53436.09;4991419;28;20368;-66
2022/07/11 05:13:49;;;;;;;10.85;2.30;;;;;;;-144.47;70.20;53420.22;4983150;28;20058;-67
2022/07/11 05:16:14;;;;;;;9.18;2.03;;;;;;;-144.47;70.10;53362.59;4997920;28;20058;-68
2022/07/11 05:18:39;;;;;;;9.38;3.10;;;;;;;-144.47;69.60;53436.09;4988671;28;20046;-68
2022/07/11 05:21:05;;;;;;;15.45;2.63;;;;;;;-144.47;69.78;53416.22;4988887;28;20034;-69
2022/07/11 05:23:31;;;;;;;6.82;2.40;;;;;;;-144.47;69.56;53386.44;4994881;28;20124;-68
2022/07/11 05:25:56;;;;;;;8.02;2.10;;;;;;;-144.47;69.09;53408.28;4981667;28;20124;-67
2022/07/11 05:28:22;;;;;;;8.93;2.22;;;;;;;-144.47;68.81;53382.47;5010675;28;20029;-68
2022/07/11 05:30:47;;;;;;;11.35;2.22;;;;;;;-144.47;68.70;53442.06;5004493;28;20069;-66
2022/07/11 05:33:13;;;;;;;15.60;1.92;;;;;;;-144.47;68.30;53408.28;4973809;28;20400;-67
2022/07/11 05:35:38;;;;;;;9.90;2.83;;;;;;;-144.47;67.73;53412.25;4976702;28;20481;-67
2022/07/11 05:38:03;;;;;;;13.32;2.47;;;;;;;-144.47;67.85;53370.53;4988574;28;20137;-67
2022/07/11 05:40:29;;;;;;;10.32;2.10;;;;;;;-144.47;67.38;53416.22;4985817;28;20040;-66
2022/07/11 05:42:54;;;;;;;8.75;2.13;;;;;;;-144.47;66.78;53392.41;4973657;28;20061;-66
2022/07/11 05:45:19;;;;;;;6.78;2.30;;;;;;;-144.47;66.78;53422.19;4992272;28;20298;-67
2022/07/11 05:47:45;;;;;;;9.05;2.00;;;;;;;-144.47;66.41;53358.63;4977769;28;20221;-67
2022/07/11 05:50:10;;;;;;;14.48;2.83;;;;;;;-144.47;66.46;53400.34;4977739;28;20045;-65
2022/07/11 05:52:35;;;;;;;7.45;2.30;;;;;;;-144.47;66.18;53374.50;4988095;28;20025;-68
2022/07/11 05:55:01;;;;;;;11.25;3.85;;;;;;;-144.47;65.80;53422.19;5011114;28;20034;-67
2022/07/11 05:57:26;;;;;;;19.05;2.67;;;;;;;-144.47;64.99;53410.28;4997929;28;20073;-66
2022/07/11 05:59:51;;;;;;;6.78;2.17;;;;;;;-144.47;65.09;53402.31;4984040;28;20048;-67
2022/07/11 06:02:18;;;;;;;11.40;2.92;;;;;;;-144.47;64.54;53356.63;5011212;28;20029;-67
2022/07/11 06:04:44;;;;;;;14.35;2.30;;;;;;;-144.47;64.24;53386.44;4979132;28;20022;-69
2022/07/11 06:07:10;;;;;;;22.05;2.47;;;;;;;-144.47;63.37;53370.53;4987047;28;20045;-68
2022/07/11 06:09:35;;;;;;;10.02;1.70;;;;;;;-144.47;62.66;53382.47;4985311;28;20726;-67
2022/07/11 06:12:00;;;;;;;11.48;1.42;;;;;;;-144.47;62.36;53392.41;4972515;28;20023;-68
2022/07/11 06:14:26;;;;;;;11.00;1.33;;;;;;;-144.47;61.50;53374.50;4979380;28;20101;-67
2022/07/11 06:16:51;;;;;;;7.45;1.33;;;;;;;-144.47;60.34;53392.41;4996567;28;20101;-67
2022/07/11 06:19:17;;;;;;;8.43;1.20;;;;;;;-144.47;60.69;53364.59;5011205;28;20022;-67
2022/07/11 06:21:42;;;;;;;11.38;1.83;;;;;;;-144.47;60.41;53340.75;4986251;28;20121;-67
2022/07/11 06:24:07;;;;;;;7.22;1.30;;;;;;;-144.47;59.95;53348.69;4981383;28;20121;-67
2022/07/11 06:26:33;;;;;;;5.10;1.10;;;;;;;-144.47;58.66;53358.63;4981243;28;20042;-67
2022/07/11 06:28:58;;;;;;;8.25;1.40;;;;;;;-144.47;58.27;53308.97;4990299;28;20022;-66
2022/07/11 06:31:23;;;;;;;8.10;1.40;;;;;;;-144.47;57.83;53354.66;4985346;28;20516;-66
2022/07/11 06:33:54;;;;;;;9.20;1.10;;;;;;;-144.47;58.20;53312.94;4992431;28;20029;-68
2022/07/11 06:36:22;;;;;;;9.18;1.60;;;;;;;-144.47;56.69;53384.44;4985935;28;20026;-67
2022/07/11 06:38:48;;;;;;;8.73;1.42;;;;;;;-144.47;54.32;53364.59;4987688;28;20050;-67
2022/07/11 06:41:14;;;;;;;3.92;1.27;;;;;;;-144.47;55.30;53370.53;4992098;28;20069;-67
2022/07/11 06:43:42;;;;;;;5.80;1.05;;;;;;;-144.47;54.38;53332.81;4981794;28;20471;-68
2022/07/11 06:46:07;;;;;;;3.50;1.02;;;;;;;-144.47;54.10;53350.69;4981114;28;20117;-67
2022/07/11 06:48:33;;;;;;;6.47;1.63;;;;;;;-144.47;53.43;53310.94;5009181;28;20117;-67
2022/07/11 06:50:58;;;;;;;9.07;1.27;;;;;;;-144.47;52.08;53340.75;4991579;28;20031;-66
2022/07/11 06:53:23;;;;;;;6.03;1.20;;;;;;;-144.47;52.00;53372.53;4981041;28;20064;-67
2022/07/11 06:55:49;;;;;;;7.53;1.33;;;;;;;-144.47;53.62;53342.72;5002026;28;20077;-67
2022/07/11 06:58:31;;;;;;;3.78;1.00;;;;;;;-144.47;52.99;53328.81;4989973;28;20479;-68
2022/07/11 07:00:58;;;;;;;4.63;1.25;;;;;;;-144.47;54.46;53336.78;4980688;28;20388;-68
2022/07/11 07:03:23;;;;;;;5.60;1.17;;;;;;;-144.47;54.40;53328.81;4982403;28;20078;-68
2022/07/11 07:05:48;;;;;;;5.03;1.05;;;;;;;-144.47;54.38;53368.56;4980545;28;20082;-69
2022/07/11 07:08:14;;;;;;;9.35;1.25;;;;;;;-144.47;54.04;53326.84;4971262;28;20077;-68
2022/07/11 07:10:39;;;;;;;5.78;1.38;;;;;;;-144.47;54.30;53356.63;4984478;28;20085;-67
2022/07/11 07:13:04;;;;;;;7.63;1.60;;;;;;;-144.47;54.40;53332.81;4971527;28;20056;-68
2022/07/11 07:15:30;;;;;;;6.53;1.15;;;;;;;-144.47;53.87;53316.91;5002188;28;20216;-66
2022/07/11 07:17:55;;;;;;;9.40;1.30;;;;;;;-144.47;53.88;53332.81;4979552;28;20034;-68
2022/07/11 07:20:20;;;;;;;8.40;1.30;;;;;;;-144.47;53.93;53346.72;5004420;28;20022;-67
2022/07/11 07:22:46;;;;;;;6.00;1.45;;;;;;;-144.47;53.68;53338.75;5008010;28;20022;-68
2022/07/11 07:25:11;;;;;;;8.98;1.33;;;;;;;-144.47;53.33;53295.06;4987267;28;20026;-68
2022/07/11 07:27:36;;;;;;;5.72;0.95;;;;;;;-144.47;52.30;53340.75;4997992;28;20017;-67
2022/07/11 07:30:02;;;;;;;6.35;1.10;;;;;;;-144.47;52.26;53340.75;4984095;28;20061;-68
2022/07/11 07:32:28;;;;;;;3.33;1.10;;;;;;;-144.47;52.86;53336.78;5009713;28;20029;-68
2022/07/11 07:34:53;;;;;;;11.82;2.20;;;;;;;-144.47;52.64;53328.81;4986612;28;20034;-68
2022/07/11 07:37:18;;;;;;;7.50;1.10;;;;;;;-144.47;52.09;53360.63;4969764;28;20118;-67
2022/07/11 07:39:44;;;;;;;6.03;2.20;;;;;;;-144.47;51.76;53303.00;4972883;28;20053;-67
2022/07/11 07:42:09;;;;;;;5.00;1.00;;;;;;;-144.47;51.72;53324.84;4974348;28;20113;-66
2022/07/11 07:44:34;;;;;;;5.55;2.08;;;;;;;-144.47;51.76;53338.75;4970489;28;20054;-68
2022/07/11 07:47:00;;;;;;;6.28;1.00;;;;;;;-144.47;51.43;53330.81;4976413;28;20045;-70
2022/07/11 07:49:27;;;;;;;3.17;0.90;;;;;;;-144.47;50.95;53277.19;4974037;28;20054;-69
2022/07/11 07:51:52;;;;;;;17.73;1.85;;;;;;;-144.47;51.67;53318.91;4973992;28;20018;-69
2022/07/11 07:54:18;;;;;;;3.45;1.10;;;;;;;-144.47;51.94;53344.72;4972780;28;20085;-68
2022/07/11 07:56:43;;;;;;;1.95;0.82;;;;;;;-144.47;50.31;53318.91;4973601;28;20030;-69
2022/07/11 07:59:09;;;;;;;13.80;1.30;;;;;;;-144.47;50.43;53314.91;4970664;28;20042;-69
2022/07/11 08:01:38;;;;;;;6.47;1.00;;;;;;;-144.47;49.66;53308.97;4972808;28;20558;-67
2022/07/11 08:04:05;;;;;;;4.10;1.00;;;;;;;-144.47;48.56;53314.91;4974268;28;20038;-68
2022/07/11 08:06:31;;;;;;;4.75;0.98;;;;;;;-144.47;48.57;53287.13;4969037;28;20029;-68
2022/07/11 08:08:57;;;;;;;4.63;1.02;;;;;;;-144.47;48.25;53295.06;4970768;28;20519;-70
2022/07/11 08:11:23;;;;;;;2.97;0.77;;;;;;;-144.47;47.72;53295.06;4971594;28;20022;-67
2022/07/11 08:13:49;;;;;;;5.25;0.82;;;;;;;-144.47;47.69;53289.09;4971758;28;20492;-67
2022/07/11 08:16:14;;;;;;;2.47;0.80;;;;;;;-144.47;47.62;53306.97;4974810;28;20046;-67
2022/07/11 08:18:40;;;;;;;8.18;0.90;;;;;;;-144.47;47.13;53316.91;4973810;28;20031;-68
2022/07/11 08:21:05;;;;;;;1.73;0.80;;;;;;;-144.47;47.14;53295.06;4972034;28;20045;-68
2022/07/11 08:23:31;;;;;;;3.67;1.00;;;;;;;-144.47;47.77;53299.03;4971075;28;20023;-68
2022/07/11 08:25:56;;;;;;;2.80;0.98;;;;;;;-144.47;47.47;53326.84;4970473;28;20035;-67
2022/07/11 08:28:22;;;;;;;3.33;1.13;;;;;;;-144.47;47.76;53316.91;4973369;28;20034;-68
2022/07/11 08:30:47;;;;;;;4.97;0.82;;;;;;;-144.47;45.92;53287.13;4973620;28;20473;-67
2022/07/11 08:33:13;;;;;;;7.50;1.40;;;;;;;-144.47;45.68;53291.09;4972643;28;20118;-68
2022/07/11 08:35:38;;;;;;;4.10;1.15;;;;;;;-144.47;45.81;53269.22;4984942;28;20084;-69
2022/07/11 08:38:04;;;;;;;7.15;1.10;;;;;;;-144.47;46.49;53281.16;4976294;28;20479;-67
2022/07/11 08:40:29;;;;;;;4.88;1.10;;;;;;;-144.47;46.47;53299.03;4973505;28;20034;-67
2022/07/11 08:42:56;;;;;;;5.53;1.17;;;;;;;-144.47;46.09;53295.06;4972589;28;20511;-69
2022/07/11 08:45:27;;;;;;;4.97;1.20;;;;;;;-144.47;44.71;53320.88;4974100;28;20041;-68
2022/07/11 08:47:54;;;;;;;4.65;1.05;;;;;;;-144.47;44.29;53285.13;4967030;28;20055;-67
2022/07/11 08:50:21;;;;;;;3.00;1.00;;;;;;;-144.47;44.29;53289.09;4971180;28;20023;-69
2022/07/11 08:52:46;;;;;;;8.60;1.27;;;;;;;-144.47;42.54;53310.94;4973791;28;20438;-68
2022/07/11 08:55:12;;;;;;;3.20;0.73;;;;;;;-144.47;41.80;53293.06;4969144;28;20030;-67
2022/07/11 08:57:37;;;;;;;6.22;0.88;;;;;;;-144.47;43.46;53261.28;4969815;28;20483;-67
2022/07/11 09:00:09;;;;;;;5.88;0.98;;;;;;;-144.47;43.11;53253.34;4984028;23;20393;-70
2022/07/11 09:02:35;;;;;;;1.85;0.75;;;;;;;-144.47;42.64;53267.25;4972908;28;20764;-70
2022/07/11 09:05:07;;;;;;;7.93;0.80;;;;;;;-144.47;41.49;53269.22;4974597;28;20044;-69
2022/07/11 09:07:33;;;;;;;5.10;1.25;;;;;;;-144.47;41.98;53269.22;4970988;28;20179;-73
2022/07/11 09:10:00;;;;;;;2.95;0.75;;;;;;;-144.47;41.60;53291.09;4976893;28;20051;-71
2022/07/11 09:12:26;;;;;;;4.88;0.80;;;;;;;-144.47;41.30;53249.38;4977960;28;20122;-70
2022/07/11 09:14:52;;;;;;;4.45;1.00;;;;;;;-144.47;41.10;53279.16;4979696;28;20030;-74
2022/07/11 09:17:26;;;;;;;2.95;0.90;;;;;;;-144.47;41.08;53245.41;4974799;28;20074;-72
2022/07/11 09:19:52;;;;;;;6.18;1.33;;;;;;;-144.47;41.14;53221.56;4976326;28;20515;-72
2022/07/11 09:25:31;;;;;;;3.55;0.80;;;;;;;-144.47;41.56;53305.00;4975873;28;20068;-70
2022/07/11 09:28:05;;;;;;;3.50;1.00;;;;;;;-144.47;41.22;53265.25;4973240;28;20105;-72
2022/07/11 09:30:39;;;;;;;6.07;1.10;;;;;;;-144.47;41.60;53269.22;4970748;28;20066;-73
2022/07/11 09:33:09;;;;;;;3.20;0.93;;;;;;;-144.47;41.57;53281.16;4970583;28;20133;-69
2022/07/11 09:35:45;;;;;;;3.55;0.82;;;;;;;-144.47;41.05;53287.13;4978069;28;20046;-70
2022/07/11 09:38:12;;;;;;;3.30;1.00;;;;;;;-144.47;40.99;53249.38;4980127;28;20036;-72
2022/07/11 09:40:42;;;;;;;0.77;0.57;;;;;;;-144.47;40.21;53259.31;4968009;28;20085;-70
2022/07/11 09:43:07;;;;;;;2.47;0.80;;;;;;;-144.47;40.88;53269.22;4970191;28;20118;-68
2022/07/11 09:45:34;;;;;;;3.90;1.02;;;;;;;-144.47;39.99;53289.09;4971454;28;20102;-73
2022/07/11 09:48:08;;;;;;;1.65;0.90;;;;;;;-144.47;40.06;53261.28;4970013;28;20089;-70
2022/07/11 09:50:33;;;;;;;8.27;1.35;;;;;;;-144.47;40.03;53221.56;4984729;28;20106;-71
2022/07/11 09:53:07;;;;;;;6.88;1.60;;;;;;;-144.47;39.81;53271.22;4985338;28;20065;-72
2022/07/11 09:55:35;;;;;;;5.85;1.30;;;;;;;-144.47;39.53;53259.31;4971751;28;20093;-71
2022/07/11 09:58:08;;;;;;;8.82;1.65;;;;;;;-144.47;39.59;53233.47;4977929;28;20037;-70
2022/07/11 10:00:35;;;;;;;3.58;1.23;;;;;;;-144.47;39.59;53273.22;4988652;28;20049;-74
2022/07/11 10:03:01;;;;;;;4.72;1.30;;;;;;;-144.47;39.57;53245.41;4970997;28;20194;-69
2022/07/11 10:05:28;;;;;;;7.78;1.00;;;;;;;-144.47;40.13;53225.53;4979172;28;20026;-69
2022/07/11 10:07:53;;;;;;;2.75;0.90;;;;;;;-144.47;41.12;53269.22;4989182;28;20033;-70
2022/07/11 10:10:18;;;;;;;5.32;1.10;;;;;;;-144.47;40.75;53245.41;4979568;28;20026;-73
2022/07/11 10:12:46;;;;;;;1.95;0.93;;;;;;;-144.47;41.15;53249.38;4989365;28;20022;-74
2022/07/11 10:15:15;;;;;;;3.00;1.10;;;;;;;-144.47;40.93;53277.19;4973406;28;20102;-71
2022/07/11 10:17:48;;;;;;;3.10;0.90;;;;;;;-144.47;39.54;53283.13;4984718;28;20058;-72
2022/07/11 10:20:26;;;;;;;3.63;1.05;;;;;;;-144.47;38.59;53265.25;4973242;28;20105;-70
2022/07/11 10:23:28;;;;;;;1.53;0.60;;;;;;;-144.47;36.76;53261.28;4971351;28;20107;-73
2022/07/11 10:26:06;;;;;;;5.65;1.20;;;;;;;-144.47;36.70;53277.19;4971617;28;20102;-72
2022/07/11 10:28:44;;;;;;;2.83;0.60;;;;;;;-144.47;36.44;53229.50;4971806;28;20038;-72
2022/07/11 10:31:23;;;;;;;2.25;0.73;;;;;;;-144.47;36.43;53223.56;4971373;28;20050;-73
2022/07/11 10:34:05;;;;;;;2.78;0.80;;;;;;;-144.47;36.48;53259.31;4978139;28;20128;-73
2022/07/11 10:36:33;;;;;;;1.85;1.00;;;;;;;-144.47;36.53;53237.44;4986538;28;20101;-70
2022/07/11 10:39:29;;;;;;;3.17;1.00;;;;;;;-144.47;36.56;53237.44;4971169;28;20464;-70
2022/07/11 10:41:58;;;;;;;3.05;0.73;;;;;;;-144.47;37.08;53235.47;4973626;28;20044;-73
2022/07/11 10:44:25;;;;;;;5.78;0.80;;;;;;;-144.47;36.78;53263.28;4982244;28;20388;-73
2022/07/11 10:46:52;;;;;;;4.97;0.93;;;;;;;-144.47;36.17;53239.44;4979797;28;20134;-69
2022/07/11 10:49:51;;;;;;;2.75;0.75;;;;;;;-144.47;35.93;53273.22;4987713;28;20026;-72
2022/07/11 10:52:23;;;;;;;3.63;0.85;;;;;;;-144.47;36.01;53203.69;4985401;28;20502;-71
2022/07/11 10:55:25;;;;;;;3.70;0.80;;;;;;;-144.47;36.03;53209.66;4981907;28;20050;-70
2022/07/11 10:58:11;;;;;;;6.95;1.10;;;;;;;-144.47;35.96;53205.66;4970369;28;20395;-71
2022/07/11 11:00:36;;;;;;;7.78;1.35;;;;;;;-144.47;36.88;53243.41;4976329;28;20034;-71
2022/07/11 11:03:07;;;;;;;9.05;1.13;;;;;;;-144.47;37.00;53247.38;4974152;28;20102;-73
2022/07/11 11:05:48;;;;;;;1.73;0.90;;;;;;;-144.47;36.70;53251.34;4980258;28;20057;-73
2022/07/11 11:08:45;;;;;;;;;;;;;;;;;;;;;
2022/07/11 11:11:01;;;;;;;2.08;0.90;;;;;;;-144.47;36.10;53247.38;4978541;28;20058;-75
2022/07/11 11:13:28;;;;;;;4.85;0.80;;;;;;;-144.47;35.52;53247.38;4988708;28;20133;-72
2022/07/11 11:15:58;;;;;;;2.17;1.00;;;;;;;-144.47;35.96;53257.31;4980914;28;20109;-73
2022/07/11 11:18:23;;;;;;;1.67;0.85;;;;;;;-144.47;35.78;53249.38;4983569;28;20026;-73
2022/07/11 11:21:01;;;;;;;2.22;1.20;;;;;;;-144.47;36.43;53227.53;4981076;28;20033;-72
2022/07/11 11:23:30;;;;;;;5.95;1.10;;;;;;;-144.47;36.24;53249.38;4972796;28;20026;-73